createdAt,value
2018-04-27T00:00:26.469Z,2.40
2018-04-27T00:02:57.528Z,2.10
2018-04-27T00:05:28.608Z,2.17
2018-04-27T00:07:59.661Z,2.30
2018-04-27T00:10:30.703Z,2.57
2018-04-27T00:13:01.803Z,2.30
2018-04-27T00:15:32.818Z,2.30
2018-04-27T00:18:03.859Z,2.23
2018-04-27T00:20:34.863Z,2.00
2018-04-27T00:23:05.897Z,2.30
2018-04-27T00:25:36.972Z,2.10
2018-04-27T00:28:08.022Z,2.13
2018-04-27T00:30:39.083Z,2.20
2018-04-27T00:33:10.184Z,1.90
2018-04-27T00:35:41.217Z,2.40
2018-04-27T00:38:12.284Z,2.53
2018-04-27T00:40:43.325Z,2.50
2018-04-27T00:43:14.357Z,2.73
2018-04-27T00:45:45.389Z,2.83
2018-04-27T00:48:16.439Z,2.87
2018-04-27T00:50:47.518Z,2.70
2018-04-27T00:53:18.573Z,2.50
2018-04-27T00:55:49.643Z,2.40
2018-04-27T00:58:20.707Z,2.50
2018-04-27T01:00:51.792Z,2.80
2018-04-27T01:03:22.894Z,2.60
2018-04-27T01:05:53.916Z,2.37
2018-04-27T01:08:24.940Z,2.70
2018-04-27T01:10:55.949Z,2.87
2018-04-27T01:13:26.998Z,2.70
2018-04-27T01:15:58.037Z,2.50
2018-04-27T01:18:29.091Z,3.17
2018-04-27T01:21:00.182Z,2.87
2018-04-27T01:23:31.939Z,2.73
2018-04-27T01:26:02.998Z,2.30
2018-04-27T01:28:34.065Z,2.97
2018-04-27T01:31:05.127Z,2.70
2018-04-27T01:33:36.180Z,2.70
2018-04-27T01:36:07.225Z,2.30
2018-04-27T01:38:38.251Z,2.40
2018-04-27T01:41:09.275Z,3.30
2018-04-27T01:43:40.330Z,2.70
2018-04-27T01:46:11.445Z,2.87
2018-04-27T01:48:42.503Z,2.73
2018-04-27T01:51:13.538Z,2.60
2018-04-27T01:53:44.628Z,3.23
2018-04-27T01:56:15.705Z,3.47
2018-04-27T01:58:46.740Z,3.10
2018-04-27T02:01:17.727Z,3.07
2018-04-27T02:03:48.772Z,3.90
2018-04-27T02:06:19.775Z,3.00
2018-04-27T02:08:50.840Z,3.10
2018-04-27T02:11:21.889Z,2.87
2018-04-27T02:13:52.953Z,3.37
2018-04-27T02:16:23.996Z,2.93
2018-04-27T02:18:55.044Z,3.60
2018-04-27T02:21:26.072Z,3.47
2018-04-27T02:23:57.078Z,3.03
2018-04-27T02:26:28.116Z,3.00
2018-04-27T02:28:59.126Z,3.50
2018-04-27T02:31:30.181Z,3.77
2018-04-27T02:34:01.169Z,3.70
2018-04-27T02:36:32.210Z,4.07
2018-04-27T02:39:03.288Z,3.60
2018-04-27T02:41:34.319Z,3.47
2018-04-27T02:44:05.337Z,4.17
2018-04-27T02:46:36.445Z,4.13
2018-04-27T02:49:07.446Z,4.10
2018-04-27T03:06:16.880Z,4.50
2018-04-27T03:08:48.755Z,4.57
2018-04-27T03:11:19.774Z,4.47
2018-04-27T03:13:50.763Z,3.90
2018-04-27T03:16:36.837Z,5.03
2018-04-27T03:19:15.959Z,4.70
2018-04-27T03:30:36.295Z,4.67
